Terminal Aerodrome Forecast
Issued by NWS

Home | Current Version | Previous Version | Text Only | Print | Product List | Glossary On
Versions: 1 2 3 4 5 6 7 8 9 10 11 12 13 14 15 16
163
FTPA31 PHFO 310520
TAFHKO
TAF
PHKO 310520Z 3106/0106 VRB06KT P6SM FEW030 SCT060
     FM310900 08005KT P6SM SCT060
     FM312000 25010KT P6SM SCT060
     FM010200 31010KT P6SM FEW030 BKN060=

USA.gov is the U.S. government's official web portal to all federal, state and local government web resources and services.